Waukon, Iowa
Current Conditions -  °F | °C
As of 9:35 PM on Monday 22 Dec 2014 (Local Time) from KDEH Reporting Station
Haze Haze  
Wind Chill: 25°   Ceiling: 300
Heat Index: 34°   Visibility: 0.5mi
Dew Point: 34°   Wind: 12mph
Humidity: 100%   Direction: 90°E
Pressure: 29.54"   Gusts: NA
Location:  43.27°N, 91.48°W
Report Text: KDEH 230335Z AUTO 09010KT 1/2SM BR OVC003 01/01 A2954 RMK AO2
Loading
Personal Weather Stations






























Interactive Weather Map New forecast layout! Learn more

10-Day Weather Forecast

Advertisements
Track Severe Weather on mobile